sensor_id;sensor_type;location;lat;lon;timestamp;P1;durP1;ratioP1;P2;durP2;ratioP2
31638;SDS011;18248;51.522;7.020;2024-03-23T00:51:11;22.00;;;4.13;;
31638;SDS011;18248;51.522;7.020;2024-03-23T00:54:10;19.35;;;3.88;;
31638;SDS011;18248;51.522;7.020;2024-03-23T00:57:09;19.65;;;3.60;;
31638;SDS011;18248;51.522;7.020;2024-03-23T01:00:08;16.80;;;3.38;;
31638;SDS011;18248;51.522;7.020;2024-03-23T01:03:08;15.27;;;3.22;;
31638;SDS011;18248;51.522;7.020;2024-03-23T01:06:07;15.23;;;3.63;;
31638;SDS011;18248;51.522;7.020;2024-03-23T01:09:05;12.52;;;2.72;;
31638;SDS011;18248;51.522;7.020;2024-03-23T01:12:04;19.85;;;3.65;;
31638;SDS011;18248;51.522;7.020;2024-03-23T01:15:03;15.85;;;3.80;;
31638;SDS011;18248;51.522;7.020;2024-03-23T01:18:02;14.43;;;3.28;;
31638;SDS011;18248;51.522;7.020;2024-03-23T01:21:00;15.90;;;3.63;;
31638;SDS011;18248;51.522;7.020;2024-03-23T01:23:59;17.73;;;3.92;;
31638;SDS011;18248;51.522;7.020;2024-03-23T01:26:57;18.48;;;3.90;;
31638;SDS011;18248;51.522;7.020;2024-03-23T01:29:56;17.58;;;3.67;;
31638;SDS011;18248;51.522;7.020;2024-03-23T01:32:54;17.85;;;3.55;;
31638;SDS011;18248;51.522;7.020;2024-03-23T01:35:53;14.10;;;3.22;;
31638;SDS011;18248;51.522;7.020;2024-03-23T01:38:52;13.20;;;2.63;;
31638;SDS011;18248;51.522;7.020;2024-03-23T01:41:50;11.43;;;2.53;;
31638;SDS011;18248;51.522;7.020;2024-03-23T01:44:49;15.02;;;2.80;;
31638;SDS011;18248;51.522;7.020;2024-03-23T01:47:47;19.42;;;2.92;;
31638;SDS011;18248;51.522;7.020;2024-03-23T01:50:50;23.08;;;4.55;;
31638;SDS011;18248;51.522;7.020;2024-03-23T01:53:49;20.85;;;4.07;;
31638;SDS011;18248;51.522;7.020;2024-03-23T01:56:48;17.40;;;3.25;;
31638;SDS011;18248;51.522;7.020;2024-03-23T01:59:47;16.98;;;3.10;;
31638;SDS011;18248;51.522;7.020;2024-03-23T02:02:47;15.23;;;2.75;;
31638;SDS011;18248;51.522;7.020;2024-03-23T02:05:45;14.63;;;2.97;;
31638;SDS011;18248;51.522;7.020;2024-03-23T02:08:44;16.77;;;3.33;;
31638;SDS011;18248;51.522;7.020;2024-03-23T02:11:43;11.00;;;2.70;;
31638;SDS011;18248;51.522;7.020;2024-03-23T02:14:41;11.93;;;2.95;;
31638;SDS011;18248;51.522;7.020;2024-03-23T02:17:40;20.05;;;3.50;;
31638;SDS011;18248;51.522;7.020;2024-03-23T02:20:38;18.95;;;3.55;;
31638;SDS011;18248;51.522;7.020;2024-03-23T02:23:37;13.40;;;2.97;;
31638;SDS011;18248;51.522;7.020;2024-03-23T02:26:35;17.25;;;4.03;;
31638;SDS011;18248;51.522;7.020;2024-03-23T02:29:34;11.00;;;3.20;;
31638;SDS011;18248;51.522;7.020;2024-03-23T02:32:32;10.63;;;2.55;;
31638;SDS011;18248;51.522;7.020;2024-03-23T02:35:31;14.52;;;3.15;;
31638;SDS011;18248;51.522;7.020;2024-03-23T02:38:30;17.15;;;4.03;;
31638;SDS011;18248;51.522;7.020;2024-03-23T02:41:28;16.38;;;3.35;;
31638;SDS011;18248;51.522;7.020;2024-03-23T02:44:27;11.02;;;3.40;;
31638;SDS011;18248;51.522;7.020;2024-03-23T02:47:25;14.07;;;3.85;;
31638;SDS011;18248;51.522;7.020;2024-03-23T02:50:24;16.98;;;3.15;;
31638;SDS011;18248;51.522;7.020;2024-03-23T02:53:22;15.18;;;3.65;;
31638;SDS011;18248;51.522;7.020;2024-03-23T02:56:21;17.88;;;4.90;;
31638;SDS011;18248;51.522;7.020;2024-03-23T02:59:19;11.70;;;3.67;;
31638;SDS011;18248;51.522;7.020;2024-03-23T03:02:18;19.60;;;5.03;;
31638;SDS011;18248;51.522;7.020;2024-03-23T03:05:16;18.33;;;4.35;;
31638;SDS011;18248;51.522;7.020;2024-03-23T03:08:15;12.30;;;3.53;;
31638;SDS011;18248;51.522;7.020;2024-03-23T03:11:14;19.25;;;4.40;;
31638;SDS011;18248;51.522;7.020;2024-03-23T03:14:12;14.70;;;3.60;;
31638;SDS011;18248;51.522;7.020;2024-03-23T03:17:11;14.95;;;3.85;;
31638;SDS011;18248;51.522;7.020;2024-03-23T03:20:09;14.45;;;3.13;;
31638;SDS011;18248;51.522;7.020;2024-03-23T03:23:11;13.50;;;3.03;;
31638;SDS011;18248;51.522;7.020;2024-03-23T03:26:09;19.63;;;3.67;;
31638;SDS011;18248;51.522;7.020;2024-03-23T03:29:08;17.52;;;3.47;;
31638;SDS011;18248;51.522;7.020;2024-03-23T03:32:06;11.13;;;2.75;;
31638;SDS011;18248;51.522;7.020;2024-03-23T03:35:05;14.30;;;2.75;;
31638;SDS011;18248;51.522;7.020;2024-03-23T03:38:04;19.42;;;3.40;;
31638;SDS011;18248;51.522;7.020;2024-03-23T03:41:03;16.13;;;3.22;;
31638;SDS011;18248;51.522;7.020;2024-03-23T03:44:01;24.58;;;3.13;;
31638;SDS011;18248;51.522;7.020;2024-03-23T03:47:00;13.30;;;2.35;;
31638;SDS011;18248;51.522;7.020;2024-03-23T03:49:58;11.73;;;2.92;;
31638;SDS011;18248;51.522;7.020;2024-03-23T03:52:57;10.23;;;2.67;;
31638;SDS011;18248;51.522;7.020;2024-03-23T03:55:56;13.93;;;3.53;;
31638;SDS011;18248;51.522;7.020;2024-03-23T03:58:55;15.60;;;4.45;;
31638;SDS011;18248;51.522;7.020;2024-03-23T04:01:54;15.32;;;4.22;;
31638;SDS011;18248;51.522;7.020;2024-03-23T04:04:52;16.60;;;4.80;;
31638;SDS011;18248;51.522;7.020;2024-03-23T04:07:51;11.57;;;3.90;;
31638;SDS011;18248;51.522;7.020;2024-03-23T04:10:49;14.23;;;4.60;;
31638;SDS011;18248;51.522;7.020;2024-03-23T04:13:48;16.70;;;5.22;;
31638;SDS011;18248;51.522;7.020;2024-03-23T04:16:46;22.88;;;5.90;;
31638;SDS011;18248;51.522;7.020;2024-03-23T04:19:45;24.83;;;5.68;;
31638;SDS011;18248;51.522;7.020;2024-03-23T04:22:43;24.63;;;6.63;;
31638;SDS011;18248;51.522;7.020;2024-03-23T04:25:42;27.23;;;6.13;;
31638;SDS011;18248;51.522;7.020;2024-03-23T04:28:41;19.30;;;6.50;;
31638;SDS011;18248;51.522;7.020;2024-03-23T04:31:41;20.80;;;5.95;;
31638;SDS011;18248;51.522;7.020;2024-03-23T04:34:39;21.20;;;5.82;;
31638;SDS011;18248;51.522;7.020;2024-03-23T04:37:38;20.77;;;5.18;;
31638;SDS011;18248;51.522;7.020;2024-03-23T04:40:40;17.20;;;5.13;;
31638;SDS011;18248;51.522;7.020;2024-03-23T04:43:38;23.05;;;5.30;;
31638;SDS011;18248;51.522;7.020;2024-03-23T04:46:38;18.60;;;5.07;;
31638;SDS011;18248;51.522;7.020;2024-03-23T04:49:36;24.65;;;4.95;;
31638;SDS011;18248;51.522;7.020;2024-03-23T04:52:35;20.98;;;5.07;;
31638;SDS011;18248;51.522;7.020;2024-03-23T04:55:33;20.00;;;4.50;;
31638;SDS011;18248;51.522;7.020;2024-03-23T04:58:32;19.10;;;4.50;;
31638;SDS011;18248;51.522;7.020;2024-03-23T05:01:31;20.20;;;4.40;;
31638;SDS011;18248;51.522;7.020;2024-03-23T05:04:29;19.58;;;4.50;;
31638;SDS011;18248;51.522;7.020;2024-03-23T05:07:30;17.20;;;4.15;;
31638;SDS011;18248;51.522;7.020;2024-03-23T05:10:28;18.27;;;3.92;;
31638;SDS011;18248;51.522;7.020;2024-03-23T05:13:27;20.45;;;4.55;;
31638;SDS011;18248;51.522;7.020;2024-03-23T05:16:26;17.00;;;4.03;;
31638;SDS011;18248;51.522;7.020;2024-03-23T05:19:24;22.92;;;5.38;;
31638;SDS011;18248;51.522;7.020;2024-03-23T05:22:23;18.83;;;4.97;;
31638;SDS011;18248;51.522;7.020;2024-03-23T05:25:22;27.48;;;5.72;;
31638;SDS011;18248;51.522;7.020;2024-03-23T05:28:21;22.75;;;4.88;;
31638;SDS011;18248;51.522;7.020;2024-03-23T05:31:26;21.50;;;5.88;;
31638;SDS011;18248;51.522;7.020;2024-03-23T05:34:26;19.88;;;5.13;;
31638;SDS011;18248;51.522;7.020;2024-03-23T05:37:24;23.63;;;5.28;;
31638;SDS011;18248;51.522;7.020;2024-03-23T05:40:23;20.48;;;4.82;;
31638;SDS011;18248;51.522;7.020;2024-03-23T05:43:24;18.15;;;4.35;;
31638;SDS011;18248;51.522;7.020;2024-03-23T05:46:22;18.13;;;4.88;;
31638;SDS011;18248;51.522;7.020;2024-03-23T05:49:21;22.63;;;5.38;;
31638;SDS011;18248;51.522;7.020;2024-03-23T05:52:19;30.60;;;8.10;;
31638;SDS011;18248;51.522;7.020;2024-03-23T05:55:19;27.02;;;7.85;;
31638;SDS011;18248;51.522;7.020;2024-03-23T05:58:17;20.25;;;7.47;;
31638;SDS011;18248;51.522;7.020;2024-03-23T06:01:19;23.80;;;7.50;;
31638;SDS011;18248;51.522;7.020;2024-03-23T06:04:17;24.13;;;8.40;;
31638;SDS011;18248;51.522;7.020;2024-03-23T06:07:16;32.33;;;10.07;;
31638;SDS011;18248;51.522;7.020;2024-03-23T06:10:14;32.03;;;10.20;;
31638;SDS011;18248;51.522;7.020;2024-03-23T06:13:13;37.58;;;10.23;;
31638;SDS011;18248;51.522;7.020;2024-03-23T06:16:12;31.33;;;10.18;;
31638;SDS011;18248;51.522;7.020;2024-03-23T06:19:11;26.73;;;8.00;;
31638;SDS011;18248;51.522;7.020;2024-03-23T06:22:09;23.13;;;7.68;;
31638;SDS011;18248;51.522;7.020;2024-03-23T06:25:08;27.80;;;7.95;;
31638;SDS011;18248;51.522;7.020;2024-03-23T06:28:06;26.98;;;7.82;;
31638;SDS011;18248;51.522;7.020;2024-03-23T06:31:08;26.88;;;8.15;;
31638;SDS011;18248;51.522;7.020;2024-03-23T06:34:07;23.02;;;7.00;;
31638;SDS011;18248;51.522;7.020;2024-03-23T06:37:06;21.70;;;6.57;;
31638;SDS011;18248;51.522;7.020;2024-03-23T06:40:05;24.15;;;8.68;;
31638;SDS011;18248;51.522;7.020;2024-03-23T06:43:07;26.70;;;7.53;;
31638;SDS011;18248;51.522;7.020;2024-03-23T06:46:06;27.58;;;7.60;;
31638;SDS011;18248;51.522;7.020;2024-03-23T06:49:05;28.90;;;7.32;;
31638;SDS011;18248;51.522;7.020;2024-03-23T06:52:04;27.67;;;8.10;;
31638;SDS011;18248;51.522;7.020;2024-03-23T06:55:03;23.40;;;6.95;;
31638;SDS011;18248;51.522;7.020;2024-03-23T06:58:03;23.80;;;8.02;;
31638;SDS011;18248;51.522;7.020;2024-03-23T07:01:02;28.50;;;7.63;;
31638;SDS011;18248;51.522;7.020;2024-03-23T07:04:00;29.77;;;8.93;;
31638;SDS011;18248;51.522;7.020;2024-03-23T07:06:59;24.75;;;7.13;;
31638;SDS011;18248;51.522;7.020;2024-03-23T07:09:59;27.15;;;7.93;;
31638;SDS011;18248;51.522;7.020;2024-03-23T07:12:57;26.13;;;7.55;;
31638;SDS011;18248;51.522;7.020;2024-03-23T07:15:56;27.70;;;7.85;;
31638;SDS011;18248;51.522;7.020;2024-03-23T07:18:56;32.35;;;8.43;;
31638;SDS011;18248;51.522;7.020;2024-03-23T07:21:54;26.48;;;7.93;;
31638;SDS011;18248;51.522;7.020;2024-03-23T07:24:53;28.15;;;7.82;;
31638;SDS011;18248;51.522;7.020;2024-03-23T07:27:52;24.17;;;7.53;;
31638;SDS011;18248;51.522;7.020;2024-03-23T07:31:04;25.60;;;8.13;;
31638;SDS011;18248;51.522;7.020;2024-03-23T07:34:03;22.27;;;9.18;;
31638;SDS011;18248;51.522;7.020;2024-03-23T07:37:02;26.83;;;8.57;;
31638;SDS011;18248;51.522;7.020;2024-03-23T07:40:00;30.35;;;8.95;;
31638;SDS011;18248;51.522;7.020;2024-03-23T07:42:59;25.33;;;8.20;;
31638;SDS011;18248;51.522;7.020;2024-03-23T07:45:58;28.55;;;9.02;;
31638;SDS011;18248;51.522;7.020;2024-03-23T07:48:57;25.58;;;9.20;;
31638;SDS011;18248;51.522;7.020;2024-03-23T07:51:55;33.35;;;9.95;;
31638;SDS011;18248;51.522;7.020;2024-03-23T07:54:54;36.22;;;9.52;;
31638;SDS011;18248;51.522;7.020;2024-03-23T07:57:52;31.65;;;9.40;;
31638;SDS011;18248;51.522;7.020;2024-03-23T08:00:54;29.05;;;8.55;;
31638;SDS011;18248;51.522;7.020;2024-03-23T08:03:54;29.20;;;9.60;;
31638;SDS011;18248;51.522;7.020;2024-03-23T08:06:52;28.20;;;7.07;;
31638;SDS011;18248;51.522;7.020;2024-03-23T08:09:51;29.25;;;7.35;;
31638;SDS011;18248;51.522;7.020;2024-03-23T08:12:49;22.45;;;6.82;;
31638;SDS011;18248;51.522;7.020;2024-03-23T08:15:48;31.80;;;7.32;;
31638;SDS011;18248;51.522;7.020;2024-03-23T08:18:46;26.08;;;6.47;;
31638;SDS011;18248;51.522;7.020;2024-03-23T08:21:45;28.48;;;7.57;;
31638;SDS011;18248;51.522;7.020;2024-03-23T08:24:44;23.30;;;6.50;;
31638;SDS011;18248;51.522;7.020;2024-03-23T08:27:44;33.53;;;7.40;;
31638;SDS011;18248;51.522;7.020;2024-03-23T08:30:42;30.65;;;6.88;;
31638;SDS011;18248;51.522;7.020;2024-03-23T08:33:41;22.65;;;7.05;;
31638;SDS011;18248;51.522;7.020;2024-03-23T08:36:42;29.25;;;7.80;;
31638;SDS011;18248;51.522;7.020;2024-03-23T08:39:43;26.15;;;7.93;;
31638;SDS011;18248;51.522;7.020;2024-03-23T08:42:41;23.42;;;7.22;;
31638;SDS011;18248;51.522;7.020;2024-03-23T08:45:40;26.98;;;6.03;;
31638;SDS011;18248;51.522;7.020;2024-03-23T08:48:42;35.97;;;8.30;;
31638;SDS011;18248;51.522;7.020;2024-03-23T08:51:43;23.92;;;7.07;;
31638;SDS011;18248;51.522;7.020;2024-03-23T08:54:41;26.63;;;7.43;;
31638;SDS011;18248;51.522;7.020;2024-03-23T08:57:40;22.92;;;6.45;;
31638;SDS011;18248;51.522;7.020;2024-03-23T09:00:38;24.52;;;6.25;;
31638;SDS011;18248;51.522;7.020;2024-03-23T09:03:37;18.13;;;4.93;;
31638;SDS011;18248;51.522;7.020;2024-03-23T09:06:36;20.58;;;5.40;;
31638;SDS011;18248;51.522;7.020;2024-03-23T09:09:34;17.67;;;4.60;;
31638;SDS011;18248;51.522;7.020;2024-03-23T09:12:35;18.15;;;4.43;;
31638;SDS011;18248;51.522;7.020;2024-03-23T09:15:34;19.58;;;5.22;;
31638;SDS011;18248;51.522;7.020;2024-03-23T09:18:35;17.80;;;4.90;;
31638;SDS011;18248;51.522;7.020;2024-03-23T09:21:34;20.85;;;4.25;;
31638;SDS011;18248;51.522;7.020;2024-03-23T09:24:33;17.45;;;4.55;;
31638;SDS011;18248;51.522;7.020;2024-03-23T09:27:32;19.45;;;4.13;;
31638;SDS011;18248;51.522;7.020;2024-03-23T09:30:31;24.63;;;4.95;;
31638;SDS011;18248;51.522;7.020;2024-03-23T09:33:31;16.13;;;4.63;;
31638;SDS011;18248;51.522;7.020;2024-03-23T09:36:30;22.17;;;3.85;;
31638;SDS011;18248;51.522;7.020;2024-03-23T09:39:29;19.27;;;3.97;;
31638;SDS011;18248;51.522;7.020;2024-03-23T09:42:27;18.42;;;3.92;;
31638;SDS011;18248;51.522;7.020;2024-03-23T09:45:27;15.82;;;4.10;;
31638;SDS011;18248;51.522;7.020;2024-03-23T09:48:26;19.88;;;4.00;;
31638;SDS011;18248;51.522;7.020;2024-03-23T09:51:25;15.18;;;4.25;;
31638;SDS011;18248;51.522;7.020;2024-03-23T09:54:24;17.13;;;4.18;;
31638;SDS011;18248;51.522;7.020;2024-03-23T09:57:22;17.75;;;4.53;;
31638;SDS011;18248;51.522;7.020;2024-03-23T10:00:21;19.25;;;4.78;;
31638;SDS011;18248;51.522;7.020;2024-03-23T10:03:20;22.77;;;4.95;;
31638;SDS011;18248;51.522;7.020;2024-03-23T10:06:21;21.63;;;5.40;;
31638;SDS011;18248;51.522;7.020;2024-03-23T10:09:20;16.52;;;4.05;;
31638;SDS011;18248;51.522;7.020;2024-03-23T10:12:20;14.68;;;3.78;;
31638;SDS011;18248;51.522;7.020;2024-03-23T10:15:25;17.33;;;4.53;;
31638;SDS011;18248;51.522;7.020;2024-03-23T10:18:24;23.10;;;4.32;;
31638;SDS011;18248;51.522;7.020;2024-03-23T10:21:23;13.38;;;4.30;;
31638;SDS011;18248;51.522;7.020;2024-03-23T10:24:21;14.77;;;3.25;;
31638;SDS011;18248;51.522;7.020;2024-03-23T10:27:21;15.70;;;3.70;;
31638;SDS011;18248;51.522;7.020;2024-03-23T10:30:20;20.75;;;2.70;;
31638;SDS011;18248;51.522;7.020;2024-03-23T10:33:25;11.63;;;2.42;;
31638;SDS011;18248;51.522;7.020;2024-03-23T10:36:24;18.08;;;2.65;;
31638;SDS011;18248;51.522;7.020;2024-03-23T10:39:26;17.10;;;3.17;;
31638;SDS011;18248;51.522;7.020;2024-03-23T10:42:24;17.35;;;3.38;;
31638;SDS011;18248;51.522;7.020;2024-03-23T10:45:23;20.85;;;2.88;;
31638;SDS011;18248;51.522;7.020;2024-03-23T10:48:22;12.93;;;4.40;;
31638;SDS011;18248;51.522;7.020;2024-03-23T10:51:21;15.52;;;3.70;;
31638;SDS011;18248;51.522;7.020;2024-03-23T10:54:19;13.55;;;3.00;;
31638;SDS011;18248;51.522;7.020;2024-03-23T10:57:20;11.18;;;3.17;;
31638;SDS011;18248;51.522;7.020;2024-03-23T11:00:24;14.00;;;2.45;;
31638;SDS011;18248;51.522;7.020;2024-03-23T11:03:33;7.47;;;1.50;;
31638;SDS011;18248;51.522;7.020;2024-03-23T11:06:35;5.72;;;1.52;;
31638;SDS011;18248;51.522;7.020;2024-03-23T11:09:40;10.40;;;1.98;;
31638;SDS011;18248;51.522;7.020;2024-03-23T11:12:39;18.70;;;8.15;;
31638;SDS011;18248;51.522;7.020;2024-03-23T11:15:38;10.10;;;2.50;;
31638;SDS011;18248;51.522;7.020;2024-03-23T11:18:36;6.10;;;1.60;;
31638;SDS011;18248;51.522;7.020;2024-03-23T11:25:19;5.43;;;1.33;;
31638;SDS011;18248;51.522;7.020;2024-03-23T11:28:19;11.70;;;1.20;;
31638;SDS011;18248;51.522;7.020;2024-03-23T11:31:17;5.55;;;1.23;;
31638;SDS011;18248;51.522;7.020;2024-03-23T11:34:16;9.77;;;1.48;;
31638;SDS011;18248;51.522;7.020;2024-03-23T11:37:15;5.32;;;1.48;;
31638;SDS011;18248;51.522;7.020;2024-03-23T11:40:16;9.43;;;1.65;;
31638;SDS011;18248;51.522;7.020;2024-03-23T11:43:19;7.93;;;1.55;;
31638;SDS011;18248;51.522;7.020;2024-03-23T11:46:22;7.63;;;1.88;;
31638;SDS011;18248;51.522;7.020;2024-03-23T11:52:20;6.85;;;1.75;;
31638;SDS011;18248;51.522;7.020;2024-03-23T11:55:18;11.75;;;2.35;;
31638;SDS011;18248;51.522;7.020;2024-03-23T11:58:18;11.48;;;3.00;;
31638;SDS011;18248;51.522;7.020;2024-03-23T12:01:17;9.00;;;2.00;;
31638;SDS011;18248;51.522;7.020;2024-03-23T12:04:25;12.02;;;2.25;;
31638;SDS011;18248;51.522;7.020;2024-03-23T12:07:27;10.00;;;2.88;;
31638;SDS011;18248;51.522;7.020;2024-03-23T12:10:25;8.85;;;2.20;;
31638;SDS011;18248;51.522;7.020;2024-03-23T12:13:24;14.38;;;2.10;;
31638;SDS011;18248;51.522;7.020;2024-03-23T12:16:24;7.55;;;1.85;;
31638;SDS011;18248;51.522;7.020;2024-03-23T12:19:25;10.68;;;2.08;;
31638;SDS011;18248;51.522;7.020;2024-03-23T12:22:24;8.98;;;2.28;;
31638;SDS011;18248;51.522;7.020;2024-03-23T12:25:22;11.65;;;1.90;;
31638;SDS011;18248;51.522;7.020;2024-03-23T12:28:21;12.98;;;1.90;;
31638;SDS011;18248;51.522;7.020;2024-03-23T12:31:19;9.88;;;2.45;;
31638;SDS011;18248;51.522;7.020;2024-03-23T12:34:18;10.60;;;2.10;;
31638;SDS011;18248;51.522;7.020;2024-03-23T12:37:18;11.20;;;2.13;;
31638;SDS011;18248;51.522;7.020;2024-03-23T12:40:17;5.65;;;1.60;;
31638;SDS011;18248;51.522;7.020;2024-03-23T12:43:16;9.18;;;1.73;;
31638;SDS011;18248;51.522;7.020;2024-03-23T12:46:15;8.25;;;2.15;;
31638;SDS011;18248;51.522;7.020;2024-03-23T12:49:13;5.75;;;1.50;;
31638;SDS011;18248;51.522;7.020;2024-03-23T12:52:12;9.02;;;1.73;;
31638;SDS011;18248;51.522;7.020;2024-03-23T12:55:11;6.78;;;1.63;;
31638;SDS011;18248;51.522;7.020;2024-03-23T12:58:09;7.85;;;1.90;;
31638;SDS011;18248;51.522;7.020;2024-03-23T13:01:08;10.40;;;2.85;;
31638;SDS011;18248;51.522;7.020;2024-03-23T13:04:06;8.77;;;1.95;;
31638;SDS011;18248;51.522;7.020;2024-03-23T13:07:05;7.55;;;2.00;;
31638;SDS011;18248;51.522;7.020;2024-03-23T13:10:05;8.45;;;1.60;;
31638;SDS011;18248;51.522;7.020;2024-03-23T13:13:04;8.30;;;1.90;;
31638;SDS011;18248;51.522;7.020;2024-03-23T13:16:03;5.63;;;1.90;;
31638;SDS011;18248;51.522;7.020;2024-03-23T13:19:03;6.25;;;2.22;;
31638;SDS011;18248;51.522;7.020;2024-03-23T13:22:02;11.07;;;1.75;;
31638;SDS011;18248;51.522;7.020;2024-03-23T13:25:01;6.25;;;1.67;;
31638;SDS011;18248;51.522;7.020;2024-03-23T13:28:00;6.65;;;1.45;;
31638;SDS011;18248;51.522;7.020;2024-03-23T13:30:59;5.70;;;1.75;;
31638;SDS011;18248;51.522;7.020;2024-03-23T13:34:01;4.47;;;1.20;;
31638;SDS011;18248;51.522;7.020;2024-03-23T13:37:00;5.40;;;1.38;;
31638;SDS011;18248;51.522;7.020;2024-03-23T13:39:59;4.80;;;1.10;;
31638;SDS011;18248;51.522;7.020;2024-03-23T13:42:58;9.18;;;2.17;;
31638;SDS011;18248;51.522;7.020;2024-03-23T13:45:58;11.85;;;2.03;;
31638;SDS011;18248;51.522;7.020;2024-03-23T13:49:00;12.20;;;2.20;;
31638;SDS011;18248;51.522;7.020;2024-03-23T13:51:59;7.85;;;2.17;;
31638;SDS011;18248;51.522;7.020;2024-03-23T13:54:58;6.13;;;2.28;;
31638;SDS011;18248;51.522;7.020;2024-03-23T13:57:56;7.93;;;2.30;;
31638;SDS011;18248;51.522;7.020;2024-03-23T14:00:58;8.63;;;2.38;;
31638;SDS011;18248;51.522;7.020;2024-03-23T14:03:57;12.48;;;2.55;;
31638;SDS011;18248;51.522;7.020;2024-03-23T14:06:55;10.85;;;2.55;;
31638;SDS011;18248;51.522;7.020;2024-03-23T14:09:54;12.13;;;2.65;;
31638;SDS011;18248;51.522;7.020;2024-03-23T14:12:53;8.38;;;2.30;;
31638;SDS011;18248;51.522;7.020;2024-03-23T14:15:55;10.70;;;1.88;;
31638;SDS011;18248;51.522;7.020;2024-03-23T14:18:53;8.93;;;2.42;;
31638;SDS011;18248;51.522;7.020;2024-03-23T14:21:52;13.15;;;2.70;;
31638;SDS011;18248;51.522;7.020;2024-03-23T14:24:50;12.40;;;3.53;;
31638;SDS011;18248;51.522;7.020;2024-03-23T14:27:49;12.68;;;2.63;;
31638;SDS011;18248;51.522;7.020;2024-03-23T14:30:50;9.90;;;2.40;;
31638;SDS011;18248;51.522;7.020;2024-03-23T14:33:50;8.48;;;2.25;;
31638;SDS011;18248;51.522;7.020;2024-03-23T14:36:48;7.95;;;2.00;;
31638;SDS011;18248;51.522;7.020;2024-03-23T14:39:47;7.30;;;1.80;;
31638;SDS011;18248;51.522;7.020;2024-03-23T14:42:45;4.60;;;1.60;;
31638;SDS011;18248;51.522;7.020;2024-03-23T14:49:14;6.38;;;1.30;;
31638;SDS011;18248;51.522;7.020;2024-03-23T14:52:19;6.85;;;1.73;;
31638;SDS011;18248;51.522;7.020;2024-03-23T14:55:18;8.40;;;1.20;;
31638;SDS011;18248;51.522;7.020;2024-03-23T14:58:17;6.18;;;1.40;;
31638;SDS011;18248;51.522;7.020;2024-03-23T15:01:16;7.18;;;1.33;;
31638;SDS011;18248;51.522;7.020;2024-03-23T15:04:14;5.20;;;1.58;;
31638;SDS011;18248;51.522;7.020;2024-03-23T15:07:13;6.97;;;1.42;;
31638;SDS011;18248;51.522;7.020;2024-03-23T15:10:11;7.00;;;1.52;;
31638;SDS011;18248;51.522;7.020;2024-03-23T15:13:11;9.73;;;2.00;;
31638;SDS011;18248;51.522;7.020;2024-03-23T15:16:09;7.20;;;1.85;;
31638;SDS011;18248;51.522;7.020;2024-03-23T15:19:08;7.00;;;1.48;;
31638;SDS011;18248;51.522;7.020;2024-03-23T15:22:07;7.55;;;1.45;;
31638;SDS011;18248;51.522;7.020;2024-03-23T15:25:06;5.90;;;1.30;;
31638;SDS011;18248;51.522;7.020;2024-03-23T15:28:06;7.82;;;1.55;;
31638;SDS011;18248;51.522;7.020;2024-03-23T15:31:05;10.48;;;1.45;;
31638;SDS011;18248;51.522;7.020;2024-03-23T15:34:03;7.38;;;1.50;;
31638;SDS011;18248;51.522;7.020;2024-03-23T15:37:02;3.45;;;1.23;;
31638;SDS011;18248;51.522;7.020;2024-03-23T15:40:02;10.20;;;1.35;;
31638;SDS011;18248;51.522;7.020;2024-03-23T15:43:01;8.35;;;1.35;;
31638;SDS011;18248;51.522;7.020;2024-03-23T15:46:00;7.10;;;1.33;;
31638;SDS011;18248;51.522;7.020;2024-03-23T15:49:00;9.65;;;1.80;;
31638;SDS011;18248;51.522;7.020;2024-03-23T15:51:59;8.25;;;1.67;;
31638;SDS011;18248;51.522;7.020;2024-03-23T15:54:58;8.10;;;1.77;;
31638;SDS011;18248;51.522;7.020;2024-03-23T15:57:57;8.93;;;2.22;;
31638;SDS011;18248;51.522;7.020;2024-03-23T16:00:57;8.30;;;1.83;;
31638;SDS011;18248;51.522;7.020;2024-03-23T16:03:58;5.93;;;1.40;;
31638;SDS011;18248;51.522;7.020;2024-03-23T16:06:58;13.68;;;2.03;;
31638;SDS011;18248;51.522;7.020;2024-03-23T16:09:56;7.72;;;1.52;;
31638;SDS011;18248;51.522;7.020;2024-03-23T16:13:02;8.95;;;1.70;;
31638;SDS011;18248;51.522;7.020;2024-03-23T16:16:01;8.32;;;1.70;;
31638;SDS011;18248;51.522;7.020;2024-03-23T16:19:01;5.53;;;1.73;;
31638;SDS011;18248;51.522;7.020;2024-03-23T16:22:00;11.57;;;1.92;;
31638;SDS011;18248;51.522;7.020;2024-03-23T16:24:58;8.73;;;1.65;;
31638;SDS011;18248;51.522;7.020;2024-03-23T16:27:57;8.55;;;1.85;;
31638;SDS011;18248;51.522;7.020;2024-03-23T16:30:56;8.43;;;1.60;;
31638;SDS011;18248;51.522;7.020;2024-03-23T16:33:55;5.88;;;1.60;;
31638;SDS011;18248;51.522;7.020;2024-03-23T16:36:54;9.73;;;2.00;;
31638;SDS011;18248;51.522;7.020;2024-03-23T16:39:52;9.82;;;2.67;;
31638;SDS011;18248;51.522;7.020;2024-03-23T16:42:51;8.10;;;1.33;;
31638;SDS011;18248;51.522;7.020;2024-03-23T16:48:55;6.03;;;1.55;;
31638;SDS011;18248;51.522;7.020;2024-03-23T16:51:54;9.55;;;2.17;;
31638;SDS011;18248;51.522;7.020;2024-03-23T16:54:52;6.70;;;1.73;;
31638;SDS011;18248;51.522;7.020;2024-03-23T16:57:51;9.68;;;1.55;;
31638;SDS011;18248;51.522;7.020;2024-03-23T17:00:49;10.20;;;1.70;;
31638;SDS011;18248;51.522;7.020;2024-03-23T17:03:49;8.80;;;2.13;;
31638;SDS011;18248;51.522;7.020;2024-03-23T17:06:49;6.45;;;1.50;;
31638;SDS011;18248;51.522;7.020;2024-03-23T17:09:48;8.25;;;1.48;;
31638;SDS011;18248;51.522;7.020;2024-03-23T17:12:46;10.32;;;1.77;;
31638;SDS011;18248;51.522;7.020;2024-03-23T17:15:46;4.88;;;1.15;;
31638;SDS011;18248;51.522;7.020;2024-03-23T17:18:44;6.22;;;1.60;;
31638;SDS011;18248;51.522;7.020;2024-03-23T17:21:43;6.10;;;1.45;;
31638;SDS011;18248;51.522;7.020;2024-03-23T17:24:42;6.80;;;1.95;;
31638;SDS011;18248;51.522;7.020;2024-03-23T17:27:41;8.85;;;1.83;;
31638;SDS011;18248;51.522;7.020;2024-03-23T17:30:39;5.80;;;1.10;;
31638;SDS011;18248;51.522;7.020;2024-03-23T17:33:38;4.15;;;0.88;;
31638;SDS011;18248;51.522;7.020;2024-03-23T17:36:36;4.40;;;0.90;;
31638;SDS011;18248;51.522;7.020;2024-03-23T17:39:36;5.53;;;1.48;;
31638;SDS011;18248;51.522;7.020;2024-03-23T17:42:35;8.40;;;1.85;;
31638;SDS011;18248;51.522;7.020;2024-03-23T17:45:34;8.45;;;1.85;;
31638;SDS011;18248;51.522;7.020;2024-03-23T17:48:34;18.23;;;7.97;;
31638;SDS011;18248;51.522;7.020;2024-03-23T17:51:32;11.15;;;4.75;;
31638;SDS011;18248;51.522;7.020;2024-03-23T17:54:32;4.90;;;2.08;;
31638;SDS011;18248;51.522;7.020;2024-03-23T17:57:31;9.82;;;2.15;;
31638;SDS011;18248;51.522;7.020;2024-03-23T18:00:29;6.68;;;1.90;;
31638;SDS011;18248;51.522;7.020;2024-03-23T18:03:28;9.23;;;1.90;;
31638;SDS011;18248;51.522;7.020;2024-03-23T18:06:27;6.30;;;1.95;;
31638;SDS011;18248;51.522;7.020;2024-03-23T18:09:25;7.47;;;1.75;;
31638;SDS011;18248;51.522;7.020;2024-03-23T18:12:24;4.68;;;1.40;;
31638;SDS011;18248;51.522;7.020;2024-03-23T18:15:22;7.95;;;1.92;;
31638;SDS011;18248;51.522;7.020;2024-03-23T18:18:21;5.28;;;1.55;;
31638;SDS011;18248;51.522;7.020;2024-03-23T18:21:20;5.78;;;1.40;;
31638;SDS011;18248;51.522;7.020;2024-03-23T18:24:18;6.85;;;1.23;;
31638;SDS011;18248;51.522;7.020;2024-03-23T18:27:17;4.38;;;1.20;;
31638;SDS011;18248;51.522;7.020;2024-03-23T18:30:16;4.72;;;1.30;;
31638;SDS011;18248;51.522;7.020;2024-03-23T18:33:14;2.85;;;1.00;;
31638;SDS011;18248;51.522;7.020;2024-03-23T18:36:13;4.72;;;1.20;;
31638;SDS011;18248;51.522;7.020;2024-03-23T18:39:12;4.10;;;0.90;;
31638;SDS011;18248;51.522;7.020;2024-03-23T18:42:10;2.88;;;0.80;;
31638;SDS011;18248;51.522;7.020;2024-03-23T18:45:09;4.70;;;1.10;;
31638;SDS011;18248;51.522;7.020;2024-03-23T18:48:07;6.53;;;1.50;;
31638;SDS011;18248;51.522;7.020;2024-03-23T18:51:06;4.68;;;1.77;;